Maynard, OH (43937)

10:50 PM EST on December 03, 2016 (GMT -0500)
Crawford Heights | | Change Station

Elev 1109 ft 40.09 °N, 80.75 °W | Updated 37 seconds ago

Overcast
Overcast
33.8 °F
Feels Like 34 °F
N
2.0
Wind Variable Wind from WSW

Today
High -- | Low -- °F
--% Chance of Precip.
Yesterday
High -- | Low -- °F
Precip. -- in
Pressure 30.34 in
Visibility 10.0 miles
Clouds Overcast 3000 ft
Windchill 34 °F
Dew Point 27 °F
Humidity 76%
Rainfall 0.00 in
Snow Depth Not available.
7:28 AM 4:58 PM
Waxing Crescent, 19% visible
METAR KHLG 040253Z AUTO 24004KT 10SM OVC030 01/M04 A3029 RMK AO2 SLP272 T00111044 53001
Pressure 30.34 in
Visibility 10.0 miles
Clouds Overcast 3000 ft
Windchill 34 °F
Dew Point 27 °F
Humidity 76%
Rainfall 0.00 in
Snow Depth Not available.
7:28 AM 4:58 PM
Waxing Crescent, 19% visible
METAR KHLG 040253Z AUTO 24004KT 10SM OVC030 01/M04 A3029 RMK AO2 SLP272 T00111044 53001

10-Day Weather Forecast

Almanac

Astronomy

Dec. 03, 2016 Rise Set
Actual Time
Civil Twilight
Nautical Twilight
Astronomical Twilight
Moon
Length of Visible Light
Length of Day
Tomorrow will be .
, % of the Moon is Illuminated

Today's Extremes

State Highs State Lows

Community

WunderPhotos

Upload Photos

1,955,573 photos uploaded!

WunderBlog® & News

Nearby

Air Quality

  Air Quality AQ Index Pollutant
Not available.

Snow Depth

Station Depth Elevation

Earthquake Activity

City Distance Mag. Time & Date
Minimum magnitude displayed is 2.5.

Coastal Water Temperatures

Place Temperature

Stations

Nearby Weather Stations

Station Location Temp. Windchill Dew Point Humidity Wind Precip. Elev Updated Type
                   

Watches & Warnings

There are currently no watches in effect.